Time;durP1;ratioP1;P1;durP2;ratioP2;P2;SDS_P1;SDS_P2;PMS_P1;PMS_P2;Temp;Humidity;BMP_temperature;BMP_pressure;BME280_temperature;BME280_humidity;BME280_pressure;Samples;Min_cycle;Max_cycle;Signal;HPM_P1;HPM_P2
2023/03/30 00:00:56;;;;;;;9.52;3.10;;;10.30;99.90;;;;;;5057764;28;25072;-71
2023/03/30 00:03:25;;;;;;;8.00;3.17;;;10.40;99.90;;;;;;5057572;28;25047;-71
2023/03/30 00:05:57;;;;;;;9.20;2.90;;;10.30;99.90;;;;;;5057094;28;25089;-71
2023/03/30 00:08:26;;;;;;;11.60;3.35;;;10.20;99.90;;;;;;5039259;28;25075;-71
2023/03/30 00:11:02;;;;;;;4.57;2.45;;;10.20;99.90;;;;;;5057028;28;25075;-71
2023/03/30 00:13:29;;;;;;;;;;;10.10;99.90;;;;;;5057562;28;25077;-71
2023/03/30 00:15:57;;;;;;;7.20;2.28;;;10.10;99.90;;;;;;5057672;28;24126;-71
2023/03/30 00:18:25;;;;;;;6.45;3.42;;;10.00;99.90;;;;;;5056840;28;25074;-71
2023/03/30 00:20:53;;;;;;;7.13;2.75;;;10.00;99.90;;;;;;5056525;28;25056;-71
2023/03/30 00:23:21;;;;;;;6.85;3.20;;;10.00;99.90;;;;;;5056624;28;25106;-71
2023/03/30 00:25:48;;;;;;;7.65;2.70;;;10.00;99.90;;;;;;5057428;28;25096;-71
2023/03/30 00:28:15;;;;;;;5.60;2.40;;;9.90;99.90;;;;;;5056947;28;25076;-71
2023/03/30 00:30:43;;;;;;;6.72;2.70;;;10.00;99.90;;;;;;5038996;28;25089;-71
2023/03/30 00:33:10;;;;;;;8.13;3.25;;;10.00;99.90;;;;;;5057162;28;25051;-71
2023/03/30 00:35:37;;;;;;;7.47;3.08;;;10.00;99.90;;;;;;5056787;28;25107;-71
2023/03/30 00:38:04;;;;;;;5.15;2.83;;;10.00;99.90;;;;;;5056989;28;25071;-71
2023/03/30 00:40:33;;;;;;;8.48;2.78;;;10.00;99.90;;;;;;5056068;28;25091;-71
2023/03/30 00:43:06;;;;;;;5.45;3.22;;;10.00;99.90;;;;;;5056000;28;25055;-71
2023/03/30 00:45:35;;;;;;;6.78;3.08;;;10.10;99.90;;;;;;5055769;28;25103;-71
2023/03/30 00:48:03;;;;;;;9.40;3.88;;;10.00;99.90;;;;;;5056930;28;25076;-71
2023/03/30 00:50:53;;;;;;;6.68;2.90;;;10.00;99.90;;;;;;5038722;28;25132;-71
2023/03/30 00:53:29;;;;;;;6.72;3.05;;;10.00;99.90;;;;;;5056238;28;25062;-71
2023/03/30 00:55:57;;;;;;;6.30;2.47;;;9.90;99.90;;;;;;5038635;28;25104;-71
2023/03/30 00:58:26;;;;;;;7.28;2.60;;;9.90;99.90;;;;;;5056283;28;25077;-71
2023/03/30 01:00:54;;;;;;;8.20;3.33;;;9.90;99.90;;;;;;5056779;28;25054;-71
2023/03/30 01:03:21;;;;;;;6.13;2.58;;;10.00;99.90;;;;;;5056692;28;25051;-71
2023/03/30 01:05:49;;;;;;;5.68;2.45;;;9.90;99.90;;;;;;5056477;28;25094;-71
2023/03/30 01:08:18;;;;;;;7.63;2.40;;;9.90;99.90;;;;;;5055785;28;25072;-71
2023/03/30 01:10:46;;;;;;;6.60;2.13;;;9.90;99.90;;;;;;5057050;28;25147;-71
2023/03/30 01:13:14;;;;;;;5.35;2.50;;;9.90;99.90;;;;;;5038405;28;25083;-71
2023/03/30 01:16:22;;;;;;;7.95;3.28;;;9.90;99.90;;;;;;5055833;28;25059;-71
2023/03/30 01:19:10;;;;;;;11.95;2.55;;;9.90;99.90;;;;;;5011600;28;25056;-71
2023/03/30 01:22:14;;;;;;;3.65;2.22;;;9.90;99.90;;;;;;5056818;28;25090;-71
2023/03/30 01:25:21;;;;;;;4.45;2.40;;;9.90;99.90;;;;;;5055937;28;25096;-71
2023/03/30 01:28:21;;;;;;;9.50;2.42;;;9.90;99.90;;;;;;5054954;28;25073;-71
2023/03/30 01:30:53;;;;;;;8.13;2.40;;;9.90;99.90;;;;;;5032363;28;25091;-71
2023/03/30 01:33:51;;;;;;;8.98;2.67;;;9.90;99.90;;;;;;5059162;28;25051;-71
2023/03/30 01:36:37;;;;;;;8.13;2.40;;;9.90;99.90;;;;;;5042034;28;25089;-71
2023/03/30 01:39:27;;;;;;;6.22;2.45;;;9.90;99.90;;;;;;5042075;28;25106;-71
2023/03/30 01:42:08;;;;;;;4.80;2.88;;;9.90;99.90;;;;;;5060431;28;25072;-71
2023/03/30 01:45:00;;;;;;;6.45;2.90;;;9.90;99.90;;;;;;5038491;28;25124;-71
2023/03/30 01:47:55;;;;;;;5.28;2.20;;;9.80;99.90;;;;;;5040092;28;25052;-71
2023/03/30 01:50:42;;;;;;;5.38;2.03;;;9.90;99.90;;;;;;5040422;28;25069;-71
2023/03/30 01:53:26;;;;;;;5.53;2.15;;;9.90;99.90;;;;;;5039842;28;25106;-71
2023/03/30 01:56:06;;;;;;;3.80;2.15;;;9.80;99.90;;;;;;5039659;28;25045;-71
2023/03/30 01:58:40;;;;;;;4.95;2.30;;;9.80;99.90;;;;;;5039816;28;25100;-71
2023/03/30 02:01:09;;;;;;;5.10;2.08;;;9.70;99.90;;;;;;5039634;28;25115;-71
2023/03/30 02:03:42;;;;;;;7.15;2.65;;;9.80;99.90;;;;;;5039940;28;25129;-71
2023/03/30 02:06:27;;;;;;;4.70;2.10;;;9.80;99.90;;;;;;5040026;28;25096;-71
2023/03/30 02:08:59;;;;;;;5.77;1.90;;;9.80;99.90;;;;;;5040174;28;25144;-71
2023/03/30 02:11:28;;;;;;;6.18;2.67;;;9.80;99.90;;;;;;5038214;28;25156;-71
2023/03/30 02:13:57;;;;;;;6.18;2.20;;;9.80;99.90;;;;;;5038178;28;25103;-71
2023/03/30 02:16:36;;;;;;;5.50;2.13;;;9.80;99.90;;;;;;5039482;28;25059;-71
2023/03/30 02:19:05;;;;;;;8.18;2.45;;;9.80;99.90;;;;;;5039168;28;25074;-71
2023/03/30 02:21:34;;;;;;;6.15;2.53;;;9.90;99.90;;;;;;5039673;28;25055;-71
2023/03/30 02:24:05;;;;;;;4.45;2.20;;;9.80;99.90;;;;;;5038043;28;25117;-71
2023/03/30 02:26:34;;;;;;;7.43;2.65;;;9.70;99.90;;;;;;5039101;28;25045;-71
2023/03/30 02:29:02;;;;;;;3.90;1.98;;;9.70;99.90;;;;;;5039552;28;25048;-71
2023/03/30 02:31:30;;;;;;;5.85;1.75;;;9.70;99.90;;;;;;5039165;28;25075;-71
2023/03/30 02:34:09;;;;;;;6.15;1.98;;;9.70;99.90;;;;;;5039222;28;25059;-71
2023/03/30 02:37:01;;;;;;;5.68;2.00;;;9.70;99.90;;;;;;5039479;28;25062;-71
2023/03/30 02:39:47;;;;;;;4.75;2.17;;;9.80;99.90;;;;;;5037741;28;25050;-71
2023/03/30 02:42:25;;;;;;;4.45;2.33;;;9.80;99.90;;;;;;5039509;28;25066;-71
2023/03/30 02:45:23;;;;;;;3.55;1.73;;;9.80;99.90;;;;;;5047639;28;25075;-71
2023/03/30 02:48:07;;;;;;;8.18;1.95;;;9.90;99.90;;;;;;5059033;28;25100;-71
2023/03/30 02:50:43;;;;;;;5.80;2.05;;;9.90;99.90;;;;;;5059280;28;25129;-71
2023/03/30 02:53:22;;;;;;;5.35;2.40;;;10.00;99.90;;;;;;5058496;28;25063;-71
2023/03/30 02:55:49;;;;;;;5.55;2.22;;;10.00;99.90;;;;;;5058488;28;25060;-71
2023/03/30 02:58:25;;;;;;;4.75;1.90;;;10.10;99.90;;;;;;5058679;28;25094;-71
2023/03/30 03:01:06;;;;;;;6.28;1.90;;;10.20;99.90;;;;;;5059079;28;25070;-71
2023/03/30 03:03:47;;;;;;;4.53;2.30;;;10.30;99.90;;;;;;5058777;28;25058;-71
2023/03/30 03:06:15;;;;;;;4.57;2.00;;;10.50;99.90;;;;;;5057222;28;25125;-71
2023/03/30 03:08:46;;;;;;;7.50;2.47;;;10.60;99.90;;;;;;5040459;28;25059;-71
2023/03/30 03:11:14;;;;;;;8.23;1.85;;;10.70;99.90;;;;;;5058512;28;25078;-71
2023/03/30 03:13:42;;;;;;;5.35;2.00;;;10.80;99.90;;;;;;5058650;28;25063;-71
2023/03/30 03:16:11;;;;;;;7.28;2.47;;;10.80;99.90;;;;;;5058677;28;25120;-71
2023/03/30 03:18:40;;;;;;;9.68;2.53;;;10.80;99.90;;;;;;5040311;28;25059;-71
2023/03/30 03:21:09;;;;;;;6.00;1.98;;;10.90;99.90;;;;;;5040438;28;25072;-71
2023/03/30 03:23:37;;;;;;;2.97;1.70;;;10.90;99.90;;;;;;5057819;28;25063;-71
2023/03/30 03:26:06;;;;;;;8.32;2.13;;;11.00;99.90;;;;;;5040221;28;25057;-71
2023/03/30 03:28:34;;;;;;;4.72;2.10;;;11.00;99.90;;;;;;5057829;28;25096;-71
2023/03/30 03:31:02;;;;;;;6.90;1.75;;;11.10;99.90;;;;;;5058279;28;25111;-71
2023/03/30 03:33:33;;;;;;;6.97;2.17;;;11.10;99.90;;;;;;5058276;28;25085;-71
2023/03/30 03:36:00;;;;;;;5.75;2.08;;;11.10;99.90;;;;;;5058250;28;25073;-71
2023/03/30 03:38:29;;;;;;;3.83;2.17;;;11.10;99.90;;;;;;5040113;28;25124;-71
2023/03/30 03:40:58;;;;;;;5.82;2.33;;;11.10;99.90;;;;;;5058295;28;25119;-71
2023/03/30 03:43:25;;;;;;;9.27;2.08;;;11.10;99.90;;;;;;5039788;28;25154;-71
2023/03/30 03:45:53;;;;;;;9.77;2.10;;;11.10;99.90;;;;;;5057085;28;25068;-71
2023/03/30 03:48:22;;;;;;;4.38;1.70;;;11.10;99.90;;;;;;5056726;28;25113;-71
2023/03/30 03:50:55;;;;;;;5.22;2.03;;;11.10;99.90;;;;;;5039702;28;25113;-71
2023/03/30 03:53:24;;;;;;;3.67;1.88;;;11.20;99.90;;;;;;5057357;28;25060;-71
2023/03/30 03:55:52;;;;;;;3.20;1.85;;;11.30;99.90;;;;;;5039644;28;25051;-71
2023/03/30 03:58:19;;;;;;;5.47;1.90;;;11.40;99.90;;;;;;5057789;28;25073;-71
2023/03/30 04:00:47;;;;;;;4.88;1.48;;;11.40;99.90;;;;;;5057505;28;25340;-71
2023/03/30 04:03:15;;;;;;;4.05;1.48;;;11.40;99.90;;;;;;5057076;28;25075;-71
2023/03/30 04:05:42;;;;;;;9.13;2.03;;;11.50;99.90;;;;;;5039811;28;25115;-71
2023/03/30 04:08:09;;;;;;;5.20;1.55;;;11.60;99.90;;;;;;5038783;28;25077;-71
2023/03/30 04:10:40;;;;;;;6.13;1.85;;;11.60;99.90;;;;;;5039338;28;25055;-71
2023/03/30 04:13:08;;;;;;;9.52;1.80;;;11.60;99.90;;;;;;5057249;28;25086;-71
2023/03/30 04:15:36;;;;;;;4.90;1.55;;;11.60;99.90;;;;;;5039445;28;25057;-71
2023/03/30 04:18:03;;;;;;;4.53;1.65;;;11.70;99.90;;;;;;5039146;28;25076;-71
2023/03/30 04:20:31;;;;;;;3.75;1.50;;;11.70;99.90;;;;;;5057157;28;25072;-71
2023/03/30 04:23:00;;;;;;;3.95;1.70;;;11.80;99.90;;;;;;5056739;28;25049;-71
2023/03/30 04:25:28;;;;;;;7.43;1.73;;;11.80;99.90;;;;;;5056840;28;25058;-71
2023/03/30 04:27:56;;;;;;;4.32;1.88;;;11.80;99.90;;;;;;5056762;28;25129;-71
2023/03/30 04:30:24;;;;;;;3.80;1.67;;;11.70;99.90;;;;;;5056992;28;25086;-71
2023/03/30 04:33:01;;;;;;;5.57;2.58;;;11.60;99.90;;;;;;5038482;28;25115;-71
2023/03/30 04:35:34;;;;;;;7.63;1.65;;;11.60;99.90;;;;;;5057335;28;25098;-71
2023/03/30 04:38:01;;;;;;;3.90;1.85;;;11.50;99.90;;;;;;5038797;28;25138;-71
2023/03/30 04:40:29;;;;;;;4.75;1.60;;;11.50;99.90;;;;;;5057113;28;25075;-71
2023/03/30 04:43:01;;;;;;;3.83;1.98;;;11.40;99.90;;;;;;5055202;28;25062;-71
2023/03/30 04:45:30;;;;;;;2.97;1.23;;;11.40;99.90;;;;;;5056450;28;25146;-71
2023/03/30 04:47:57;;;;;;;4.70;1.60;;;11.40;99.90;;;;;;5057000;28;25107;-71
2023/03/30 04:50:24;;;;;;;5.90;1.90;;;11.50;99.90;;;;;;5056395;28;25049;-71
2023/03/30 04:52:52;;;;;;;3.45;1.58;;;11.50;99.90;;;;;;5056768;28;25051;-71
2023/03/30 04:55:19;;;;;;;5.18;1.70;;;11.50;99.90;;;;;;5056980;28;25061;-71
2023/03/30 04:57:46;;;;;;;4.88;1.48;;;11.60;99.90;;;;;;5056861;28;25137;-71
2023/03/30 05:00:14;;;;;;;4.28;1.35;;;11.60;99.90;;;;;;5038656;28;25137;-71
2023/03/30 05:02:42;;;;;;;5.60;2.03;;;11.60;99.90;;;;;;5056210;28;25129;-71
2023/03/30 05:05:09;;;;;;;5.22;1.35;;;11.70;99.90;;;;;;5056287;28;25070;-71
2023/03/30 05:07:37;;;;;;;4.75;1.08;;;11.80;99.90;;;;;;5055619;28;25101;-71
2023/03/30 05:10:04;;;;;;;4.00;1.40;;;11.90;99.90;;;;;;5056704;28;25062;-71
2023/03/30 05:12:31;;;;;;;8.27;1.48;;;11.90;99.90;;;;;;5038425;28;25099;-71
2023/03/30 05:14:59;;;;;;;6.93;1.85;;;11.90;99.90;;;;;;5038433;28;25112;-71
2023/03/30 05:17:25;;;;;;;3.95;1.40;;;12.00;99.90;;;;;;5056819;28;25049;-71
2023/03/30 05:19:53;;;;;;;9.70;2.20;;;12.00;99.90;;;;;;5055597;28;25088;-71
2023/03/30 05:22:21;;;;;;;4.47;1.70;;;12.00;99.90;;;;;;5054841;28;25084;-71
2023/03/30 05:24:48;;;;;;;5.07;2.00;;;12.10;99.90;;;;;;5056445;28;25099;-71
2023/03/30 05:27:15;;;;;;;4.57;1.50;;;12.20;99.90;;;;;;5056164;28;25074;-72
2023/03/30 05:29:42;;;;;;;7.35;1.65;;;12.20;99.90;;;;;;5056522;28;25073;-72
2023/03/30 05:32:10;;;;;;;5.13;1.35;;;12.20;99.90;;;;;;5055950;28;25123;-72
2023/03/30 05:34:38;;;;;;;5.55;1.92;;;12.30;99.90;;;;;;5038012;28;25051;-76
2023/03/30 05:37:06;;;;;;;4.38;1.60;;;12.40;99.90;;;;;;5037233;28;25076;-72
2023/03/30 05:39:32;;;;;;;7.63;1.75;;;12.40;99.90;;;;;;5054620;28;25117;-73
2023/03/30 05:42:00;;;;;;;14.35;3.05;;;12.50;99.90;;;;;;5038249;28;25056;-73
2023/03/30 05:44:27;;;;;;;10.32;1.33;;;12.50;99.90;;;;;;5034583;28;25074;-73
2023/03/30 05:46:55;;;;;;;5.90;1.90;;;12.60;99.90;;;;;;5036367;28;25072;-74
2023/03/30 05:49:25;;;;;;;4.15;1.42;;;12.70;99.90;;;;;;5036163;28;25129;-75
2023/03/30 05:51:52;;;;;;;3.15;1.30;;;12.70;99.90;;;;;;5035090;28;25073;-75
2023/03/30 05:54:20;;;;;;;7.57;1.50;;;12.70;99.90;;;;;;5035079;28;25061;-75
2023/03/30 05:56:48;;;;;;;10.98;1.48;;;12.80;99.90;;;;;;5035986;28;25075;-75
2023/03/30 05:59:15;;;;;;;3.35;1.00;;;12.90;99.90;;;;;;5035798;28;25063;-75
2023/03/30 06:01:44;;;;;;;3.90;0.98;;;12.90;99.90;;;;;;5036304;28;25052;-73
2023/03/30 06:04:12;;;;;;;6.03;1.52;;;13.00;99.90;;;;;;5035955;28;25053;-76
2023/03/30 06:06:40;;;;;;;9.88;2.55;;;13.20;99.90;;;;;;5034887;28;25072;-74
2023/03/30 06:09:09;;;;;;;5.13;1.10;;;13.20;99.90;;;;;;5035037;28;25061;-75
2023/03/30 06:11:36;;;;;;;3.10;1.23;;;13.20;99.90;;;;;;5035571;28;25110;-76
2023/03/30 06:14:04;;;;;;;4.05;1.20;;;13.30;99.90;;;;;;5035629;28;25062;-75
2023/03/30 06:16:31;;;;;;;4.93;1.10;;;13.40;99.90;;;;;;5034725;28;25059;-73
2023/03/30 06:18:59;;;;;;;2.35;1.10;;;13.40;99.90;;;;;;5036292;28;25108;-76
2023/03/30 06:21:26;;;;;;;5.55;1.50;;;13.40;99.90;;;;;;5038138;28;25061;-71
2023/03/30 06:23:54;;;;;;;7.25;1.48;;;13.50;99.90;;;;;;5038994;28;25070;-71
2023/03/30 06:26:22;;;;;;;6.40;2.08;;;13.60;99.90;;;;;;5038166;28;25064;-69
2023/03/30 06:28:50;;;;;;;3.88;1.17;;;13.60;99.90;;;;;;5039046;28;25064;-72
2023/03/30 06:31:18;;;;;;;5.68;1.50;;;13.70;99.90;;;;;;5039074;28;25118;-72
2023/03/30 06:33:45;;;;;;;5.03;0.98;;;13.70;99.90;;;;;;5037852;28;25048;-71
2023/03/30 06:36:13;;;;;;;3.67;1.40;;;13.80;99.90;;;;;;5039094;28;25050;-71
2023/03/30 06:38:45;;;;;;;6.95;1.70;;;13.80;99.90;;;;;;5037727;28;25073;-71
2023/03/30 06:41:13;;;;;;;9.20;1.90;;;13.80;99.90;;;;;;5038872;28;25132;-71
2023/03/30 06:43:40;;;;;;;6.72;1.02;;;13.80;99.90;;;;;;5038948;28;25096;-72
2023/03/30 06:46:11;;;;;;;7.90;1.00;;;13.80;99.90;;;;;;5058395;28;25116;-71
2023/03/30 06:48:38;;;;;;;5.43;1.42;;;13.90;99.90;;;;;;5059131;28;25084;-71
2023/03/30 06:51:06;;;;;;;6.80;1.20;;;13.80;99.90;;;;;;5040956;28;25074;-71
2023/03/30 06:53:34;;;;;;;6.95;1.73;;;13.90;99.90;;;;;;5058332;28;25070;-72
2023/03/30 06:56:01;;;;;;;4.88;1.33;;;13.90;99.90;;;;;;5059204;28;25063;-71
2023/03/30 06:58:30;;;;;;;8.88;1.92;;;13.90;99.90;;;;;;5058422;28;25077;-72
2023/03/30 07:00:57;;;;;;;8.18;1.67;;;13.80;99.90;;;;;;5040656;28;25127;-71
2023/03/30 07:03:25;;;;;;;3.70;1.42;;;13.80;99.90;;;;;;5058103;28;25066;-72
2023/03/30 07:05:53;;;;;;;4.55;1.40;;;13.80;99.90;;;;;;5058448;28;25054;-71
2023/03/30 07:08:20;;;;;;;12.18;2.47;;;13.80;99.90;;;;;;5058350;28;25109;-71
2023/03/30 07:10:48;;;;;;;5.32;1.40;;;13.90;99.90;;;;;;5058238;28;25125;-72
2023/03/30 07:13:16;;;;;;;8.52;1.58;;;13.90;99.90;;;;;;5040636;28;25140;-71
2023/03/30 07:15:45;;;;;;;5.40;1.92;;;14.00;99.90;;;;;;5058114;28;25048;-73
2023/03/30 07:18:13;;;;;;;4.97;1.20;;;14.00;99.90;;;;;;5040277;28;25059;-72
2023/03/30 07:20:41;;;;;;;6.07;1.40;;;14.10;99.90;;;;;;5040456;28;25124;-71
2023/03/30 07:23:10;;;;;;;6.28;1.48;;;14.20;99.90;;;;;;5058078;28;25073;-70
2023/03/30 07:25:38;;;;;;;8.57;1.52;;;14.20;99.90;;;;;;5057768;28;25073;-71
2023/03/30 07:28:06;;;;;;;6.53;1.35;;;14.30;99.90;;;;;;5057785;28;25077;-71
2023/03/30 07:30:33;;;;;;;3.55;1.60;;;14.40;99.90;;;;;;5058103;28;25085;-70
2023/03/30 07:33:01;;;;;;;22.05;2.88;;;14.50;99.90;;;;;;5040123;28;25082;-71
2023/03/30 07:35:28;;;;;;;3.88;1.13;;;14.50;99.90;;;;;;5040047;28;25072;-71
2023/03/30 07:37:57;;;;;;;7.03;1.92;;;14.60;99.90;;;;;;5057651;28;25145;-70
2023/03/30 07:40:25;;;;;;;6.45;1.85;;;14.70;99.90;;;;;;5058091;28;24905;-70
2023/03/30 07:42:53;;;;;;;5.78;1.55;;;14.70;99.90;;;;;;5057579;28;25093;-71
2023/03/30 07:45:20;;;;;;;4.45;1.25;;;14.80;99.90;;;;;;5057243;28;25054;-70
2023/03/30 07:47:48;;;;;;;7.22;1.70;;;14.80;99.90;;;;;;5057760;28;25068;-71
2023/03/30 07:50:15;;;;;;;6.80;1.65;;;14.80;99.90;;;;;;5057647;28;25104;-71
2023/03/30 07:52:43;;;;;;;3.70;1.42;;;14.90;99.90;;;;;;5057318;28;25103;-71
2023/03/30 07:55:11;;;;;;;5.28;1.45;;;14.90;99.90;;;;;;5057430;28;25052;-70
2023/03/30 07:57:39;;;;;;;5.90;1.73;;;14.90;99.90;;;;;;5057301;28;25127;-71
2023/03/30 08:00:13;;;;;;;6.30;2.42;;;15.00;99.90;;;;;;5057282;28;25058;-71
2023/03/30 08:02:41;;;;;;;6.20;1.95;;;15.00;99.90;;;;;;5057786;28;25068;-71
2023/03/30 08:05:08;;;;;;;7.85;1.77;;;15.10;99.90;;;;;;5057102;28;25059;-71
2023/03/30 08:07:36;;;;;;;6.78;2.03;;;15.00;99.90;;;;;;5057075;28;25074;-71
2023/03/30 08:10:03;;;;;;;5.70;1.60;;;15.10;99.90;;;;;;5039414;28;25064;-70
2023/03/30 08:12:31;;;;;;;6.60;1.73;;;15.10;99.90;;;;;;5057049;28;25072;-70
2023/03/30 08:14:59;;;;;;;5.00;1.50;;;15.10;99.90;;;;;;5057568;28;25053;-71
2023/03/30 08:17:26;;;;;;;4.55;1.80;;;15.20;99.90;;;;;;5057118;28;25064;-70
2023/03/30 08:19:58;;;;;;;8.60;2.58;;;15.10;99.90;;;;;;5057461;28;25153;-71
2023/03/30 08:22:25;;;;;;;9.55;1.85;;;15.20;99.90;;;;;;5039088;28;25126;-71
2023/03/30 08:24:53;;;;;;;8.82;2.10;;;15.30;99.90;;;;;;5056661;28;25075;-71
2023/03/30 08:27:20;;;;;;;7.57;1.40;;;15.50;99.90;;;;;;5056967;28;25081;-71
2023/03/30 08:29:47;;;;;;;4.78;1.58;;;15.70;99.90;;;;;;5056753;28;25066;-71
2023/03/30 08:32:15;;;;;;;3.22;1.00;;;15.90;99.90;;;;;;5039075;28;25066;-70
2023/03/30 08:34:43;;;;;;;7.95;1.40;;;16.10;99.90;;;;;;5057215;28;25054;-70
2023/03/30 08:37:11;;;;;;;6.95;1.27;;;16.10;99.90;;;;;;5057180;28;25062;-71
2023/03/30 08:39:38;;;;;;;5.07;1.10;;;16.10;99.90;;;;;;5056604;28;25068;-70
2023/03/30 08:42:11;;;;;;;2.80;1.25;;;16.00;99.90;;;;;;5055826;28;25075;-70
2023/03/30 08:44:53;;;;;;;5.00;1.10;;;15.90;99.90;;;;;;5035363;28;25116;-71
2023/03/30 08:47:38;;;;;;;3.83;1.20;;;16.00;99.90;;;;;;5036758;28;25051;-71
2023/03/30 08:50:18;;;;;;;7.65;1.38;;;16.00;99.90;;;;;;5035485;28;25072;-71
2023/03/30 08:52:45;;;;;;;3.45;1.27;;;16.00;99.90;;;;;;5036979;28;25119;-71
2023/03/30 08:55:48;;;;;;;3.25;0.68;;;16.10;99.90;;;;;;5036613;28;25058;-70
2023/03/30 08:58:57;;;;;;;3.25;0.88;;;16.10;99.90;;;;;;5035022;28;25156;-70
2023/03/30 09:01:37;;;;;;;4.25;1.13;;;16.30;99.90;;;;;;5036417;28;25076;-70
2023/03/30 09:04:28;;;;;;;5.55;1.70;;;16.50;99.90;;;;;;5035176;28;25118;-70
2023/03/30 09:07:17;;;;;;;6.05;1.23;;;16.60;99.90;;;;;;5036446;28;25079;-71
2023/03/30 09:09:47;;;;;;;6.53;1.65;;;16.70;99.90;;;;;;5036323;28;25073;-71
2023/03/30 09:12:36;;;;;;;6.05;1.13;;;16.80;99.90;;;;;;5036597;28;25104;-70
2023/03/30 09:15:20;;;;;;;5.00;1.20;;;16.80;99.90;;;;;;5036789;28;25052;-71
2023/03/30 09:18:00;;;;;;;14.07;2.22;;;16.80;99.90;;;;;;5036836;28;25120;-70
2023/03/30 09:20:30;;;;;;;4.38;1.92;;;16.90;99.90;;;;;;5036772;28;25068;-70
2023/03/30 09:23:01;;;;;;;3.42;1.20;;;16.80;99.90;;;;;;5036133;28;25072;-71
2023/03/30 09:25:40;;;;;;;6.75;1.52;;;16.90;99.90;;;;;;5036030;28;25119;-71
2023/03/30 09:28:24;;;;;;;10.18;2.00;;;16.90;99.90;;;;;;5036150;28;25053;-71
2023/03/30 09:31:07;;;;;;;7.00;1.67;;;16.90;99.90;;;;;;5036022;28;25096;-70
2023/03/30 09:33:45;;;;;;;9.00;1.45;;;16.90;99.90;;;;;;5036070;28;25069;-71
2023/03/30 09:36:19;;;;;;;5.95;1.50;;;17.00;99.90;;;;;;5036821;28;25100;-70
2023/03/30 09:38:49;;;;;;;3.65;1.45;;;17.20;99.90;;;;;;5036068;28;25053;-70
2023/03/30 09:41:28;;;;;;;5.28;2.05;;;17.20;99.90;;;;;;5036177;28;25105;-70
2023/03/30 09:43:57;;;;;;;3.80;1.15;;;17.20;99.90;;;;;;5036769;28;25116;-70
2023/03/30 09:46:25;;;;;;;3.30;1.25;;;17.20;99.90;;;;;;5038239;28;25060;-70
2023/03/30 09:48:52;;;;;;;8.93;1.55;;;17.00;99.90;;;;;;5056411;28;25122;-71
2023/03/30 09:51:27;;;;;;;3.58;1.85;;;16.60;99.90;;;;;;5056297;28;25062;-71
2023/03/30 09:54:01;;;;;;;5.40;1.40;;;15.80;99.90;;;;;;5057652;28;25050;-70
2023/03/30 09:56:50;;;;;;;4.72;1.50;;;15.30;99.90;;;;;;5059727;28;25054;-70
2023/03/30 09:59:36;;;;;;;8.25;1.33;;;15.20;99.90;;;;;;5059385;28;25131;-70
2023/03/30 10:02:15;;;;;;;6.13;1.83;;;15.20;99.90;;;;;;5060002;28;25066;-71
2023/03/30 10:04:58;;;;;;;5.00;1.25;;;15.50;99.90;;;;;;5059121;28;25117;-70
2023/03/30 10:07:40;;;;;;;5.75;1.25;;;15.90;99.90;;;;;;5059861;28;25074;-70
2023/03/30 10:10:28;;;;;;;7.43;1.23;;;16.10;99.90;;;;;;5059558;28;25074;-71
2023/03/30 10:13:14;;;;;;;7.32;0.80;;;16.30;99.90;;;;;;5041627;28;25093;-71
2023/03/30 10:15:47;;;;;;;;;;;16.30;99.90;;;;;;5060302;28;25103;-71
2023/03/30 10:18:17;;;;;;;4.07;0.90;;;15.30;99.90;;;;;;5059524;28;25150;-71
2023/03/30 10:21:27;;;;;;;7.72;1.00;;;13.80;99.90;;;;;;5041666;28;25115;-71
2023/03/30 10:24:21;;;;;;;5.65;0.90;;;12.70;99.90;;;;;;5058752;28;25071;-71
2023/03/30 10:26:52;;;;;;;9.02;2.03;;;12.10;99.90;;;;;;5041385;28;25096;-71
2023/03/30 10:29:23;;;;;;;6.68;1.00;;;11.90;99.90;;;;;;5059056;28;25060;-70
2023/03/30 10:32:14;;;;;;;5.13;1.25;;;11.90;99.90;;;;;;5059164;28;25099;-71
2023/03/30 10:34:47;;;;;;;11.88;2.22;;;12.00;99.90;;;;;;5059458;28;25059;-70
2023/03/30 10:37:36;;;;;;;5.30;1.00;;;12.20;99.90;;;;;;5041105;28;25060;-71
2023/03/30 10:40:17;;;;;;;6.88;1.60;;;12.40;99.90;;;;;;5041012;28;25055;-71
2023/03/30 10:42:50;;;;;;;6.95;1.55;;;12.60;99.90;;;;;;5058775;28;25098;-71
2023/03/30 10:45:27;;;;;;;7.50;1.52;;;12.80;99.90;;;;;;5058666;28;25081;-71
2023/03/30 10:48:34;;;;;;;4.82;1.35;;;13.00;99.90;;;;;;5040966;28;25076;-71
2023/03/30 10:51:12;;;;;;;9.18;1.60;;;13.20;99.90;;;;;;5059200;28;25077;-71
2023/03/30 10:53:55;;;;;;;3.75;1.17;;;13.40;99.90;;;;;;5059049;28;25056;-70
2023/03/30 10:56:32;;;;;;;5.50;1.17;;;13.40;99.90;;;;;;5059265;28;25054;-70
2023/03/30 10:59:47;;;;;;;5.18;1.02;;;13.40;99.90;;;;;;5059013;28;25091;-70
2023/03/30 11:02:36;;;;;;;9.27;1.27;;;13.40;99.90;;;;;;5041234;28;25069;-71
2023/03/30 11:05:18;;;;;;;3.38;1.10;;;13.30;99.90;;;;;;5057965;28;25075;-71
2023/03/30 11:07:52;;;;;;;5.88;1.70;;;13.50;99.90;;;;;;5040521;28;25058;-70
2023/03/30 11:10:32;;;;;;;6.63;2.25;;;13.70;99.90;;;;;;5058811;28;25070;-71
2023/03/30 11:13:32;;;;;;;5.63;1.63;;;14.00;99.90;;;;;;5058229;28;25145;-71
2023/03/30 11:16:07;;;;;;;7.57;2.03;;;14.20;99.90;;;;;;5054486;28;25121;-71
2023/03/30 11:19:06;;;;;;;5.57;1.65;;;14.20;99.90;;;;;;5058618;28;25073;-71
2023/03/30 11:21:55;;;;;;;5.53;1.67;;;14.20;99.90;;;;;;5058334;28;25099;-70
2023/03/30 11:24:28;;;;;;;5.20;1.60;;;14.20;99.90;;;;;;5057789;28;25076;-70
2023/03/30 11:27:20;;;;;;;6.00;1.48;;;14.10;99.90;;;;;;5040384;28;25100;-71
2023/03/30 11:30:19;;;;;;;4.18;1.10;;;14.10;99.90;;;;;;5058114;28;25064;-73
2023/03/30 11:33:27;;;;;;;8.93;2.00;;;14.10;99.90;;;;;;5058058;28;25068;-71
2023/03/30 11:36:11;;;;;;;4.65;1.52;;;14.10;99.90;;;;;;5058201;28;25061;-71
2023/03/30 11:38:54;;;;;;;8.13;1.25;;;14.10;99.90;;;;;;5057722;28;25053;-72
2023/03/30 11:41:31;;;;;;;6.10;1.27;;;14.10;99.90;;;;;;5040231;28;25057;-72
2023/03/30 11:44:00;;;;;;;6.28;1.48;;;14.10;99.90;;;;;;5056449;28;25054;-73
2023/03/30 11:47:00;;;;;;;5.28;1.60;;;14.10;99.90;;;;;;5038493;28;25108;-72
2023/03/30 11:49:47;;;;;;;6.15;1.38;;;14.00;99.90;;;;;;5037409;28;25076;-73
2023/03/30 11:52:41;;;;;;;5.25;1.90;;;14.10;99.90;;;;;;5037876;28;25072;-73
2023/03/30 11:55:29;;;;;;;7.00;1.30;;;14.30;99.90;;;;;;5037599;28;25057;-72
2023/03/30 11:58:09;;;;;;;9.68;1.85;;;14.30;99.90;;;;;;5019699;28;25099;-72
2023/03/30 12:01:00;;;;;;;5.75;1.70;;;14.20;99.90;;;;;;5037187;28;25150;-73
2023/03/30 12:03:50;;;;;;;4.78;1.27;;;14.10;99.90;;;;;;5019532;28;25081;-73
2023/03/30 12:06:30;;;;;;;5.90;1.63;;;14.10;99.90;;;;;;5037255;28;25057;-74
2023/03/30 12:09:01;;;;;;;5.50;1.45;;;14.10;99.90;;;;;;5036975;28;25104;-72
2023/03/30 12:11:50;;;;;;;19.73;1.70;;;14.10;99.90;;;;;;5037697;28;25063;-72
2023/03/30 12:14:50;;;;;;;10.98;2.22;;;13.90;99.90;;;;;;5019252;28;25077;-74
2023/03/30 12:17:49;;;;;;;6.38;1.73;;;12.80;99.90;;;;;;5004333;28;25130;-74
2023/03/30 12:20:54;;;;;;;8.27;1.85;;;11.80;99.90;;;;;;5037346;28;25073;-73
2023/03/30 12:23:36;;;;;;;10.52;2.00;;;11.40;99.90;;;;;;5037045;28;25075;-73
2023/03/30 12:26:17;;;;;;;5.85;2.13;;;11.30;99.90;;;;;;5037114;28;25109;-74
2023/03/30 12:28:57;;;;;;;7.13;1.60;;;11.40;99.90;;;;;;5037336;28;25055;-73
2023/03/30 12:32:03;;;;;;;5.22;2.25;;;11.50;99.90;;;;;;5019289;28;25053;-74
2023/03/30 12:34:43;;;;;;;7.82;1.48;;;11.60;99.90;;;;;;5037269;28;25084;-74
2023/03/30 12:37:25;;;;;;;3.15;1.25;;;12.00;99.90;;;;;;5036837;28;25085;-75
2023/03/30 12:40:16;;;;;;;10.80;1.95;;;12.40;99.90;;;;;;5036884;28;25134;-73
2023/03/30 12:43:01;;;;;;;6.05;1.40;;;13.00;99.90;;;;;;5036864;28;25078;-73
2023/03/30 12:45:33;;;;;;;5.20;1.33;;;13.60;99.90;;;;;;5022222;28;25097;-73
2023/03/30 12:48:25;;;;;;;7.15;1.15;;;14.00;99.90;;;;;;5016773;28;25149;-71
2023/03/30 12:51:02;;;;;;;6.50;1.90;;;14.30;99.90;;;;;;4999479;28;25070;-72
2023/03/30 12:53:47;;;;;;;10.00;0.90;;;14.50;99.90;;;;;;4999105;28;25166;-72
2023/03/30 12:56:32;;;;;;;7.13;1.88;;;14.60;99.90;;;;;;5016964;28;25107;-72
2023/03/30 12:59:35;;;;;;;5.13;1.20;;;14.60;99.90;;;;;;5017103;28;25077;-72
2023/03/30 13:02:06;;;;;;;5.55;1.10;;;14.60;99.90;;;;;;5016625;28;25162;-72
2023/03/30 13:04:40;;;;;;;10.18;2.05;;;14.80;99.90;;;;;;5016916;28;25096;-71
2023/03/30 13:07:22;;;;;;;8.27;1.85;;;15.00;99.90;;;;;;5016464;28;25116;-71
2023/03/30 13:10:01;;;;;;;7.28;1.85;;;15.10;99.90;;;;;;5016998;28;25069;-71
2023/03/30 13:12:28;;;;;;;5.65;1.63;;;15.20;99.90;;;;;;5016429;28;25114;-71
2023/03/30 13:15:16;;;;;;;5.80;1.75;;;15.50;99.90;;;;;;5016896;28;25069;-71
2023/03/30 13:17:57;;;;;;;8.30;1.58;;;15.80;99.90;;;;;;5001533;28;25134;-71
2023/03/30 13:20:55;;;;;;;7.93;2.10;;;15.90;99.90;;;;;;5016892;28;25096;-71
2023/03/30 13:23:32;;;;;;;6.82;1.50;;;16.00;99.90;;;;;;5016178;28;25072;-72
2023/03/30 13:26:26;;;;;;;8.82;2.00;;;16.10;99.90;;;;;;5016933;28;25078;-71
2023/03/30 13:29:10;;;;;;;8.25;2.85;;;16.10;99.90;;;;;;5018490;28;25066;-72